NJU947 EGPH-EHRD
Flight info
| Callsign | NJU947 |
|---|---|
| Flight time | 1h 1m |
| Altitude | 45000 |
| Route | TLA DCT NATEB DCT OTR DCT NWI DCT REDFA |
| Aircraft | C750/M-SBDE3FGHRWXY/S |
Departure
| Time | 2026-04-26 14:30 |
|---|---|
| Airport | Edinburgh Airport (EGPH) |
Arrival
| Time | 2026-04-26 15:32 |
|---|---|
| Airport | Rotterdam The Hague Airport (EHRD) |
| Time | Latitude | Longitude | Altitude | Speed | Heading |
|---|---|---|---|---|---|
| 2026-04-26 14:11 | 55.95216 | -3.35587 | 105 ft | 0 kts | 28° |
| 2026-04-26 14:24 | 55.95223 | -3.35588 | 106 ft | 3 kts | 348° |
| 2026-04-26 14:25 | 55.95221 | -3.35658 | 105 ft | 12 kts | 259° |
| 2026-04-26 14:25 | 55.95249 | -3.35819 | 101 ft | 16 kts | 322° |
| 2026-04-26 14:25 | 55.95245 | -3.35952 | 97 ft | 11 kts | 237° |
| 2026-04-26 14:25 | 55.95206 | -3.36060 | 98 ft | 10 kts | 237° |
| 2026-04-26 14:26 | 55.95180 | -3.36142 | 100 ft | 5 kts | 248° |
| 2026-04-26 14:26 | 55.95163 | -3.36193 | 100 ft | 6 kts | 238° |
| 2026-04-26 14:26 | 55.95110 | -3.36353 | 102 ft | 24 kts | 238° |
| 2026-04-26 14:26 | 55.95024 | -3.36604 | 103 ft | 24 kts | 239° |
| 2026-04-26 14:27 | 55.94940 | -3.36851 | 102 ft | 23 kts | 239° |
| 2026-04-26 14:27 | 55.94861 | -3.37104 | 102 ft | 23 kts | 236° |
| 2026-04-26 14:27 | 55.94776 | -3.37331 | 104 ft | 21 kts | 239° |
| 2026-04-26 14:27 | 55.94709 | -3.37532 | 107 ft | 18 kts | 236° |
| 2026-04-26 14:28 | 55.94637 | -3.37746 | 110 ft | 30 kts | 239° |
| 2026-04-26 14:28 | 55.94515 | -3.38125 | 106 ft | 41 kts | 243° |
| 2026-04-26 14:28 | 55.94360 | -3.38582 | 114 ft | 37 kts | 236° |
| 2026-04-26 14:28 | 55.94280 | -3.38818 | 116 ft | 15 kts | 264° |
| 2026-04-26 14:29 | 55.94339 | -3.38918 | 115 ft | 12 kts | 329° |
| 2026-04-26 14:29 | 55.94408 | -3.38984 | 115 ft | 9 kts | 356° |
| 2026-04-26 14:29 | 55.94423 | -3.38966 | 115 ft | 0 kts | 65° |
| 2026-04-26 14:30 | 55.94424 | -3.38962 | 115 ft | 7 kts | 66° |
| 2026-04-26 14:30 | 55.94662 | -3.38245 | 113 ft | 123 kts | 58° |
| 2026-04-26 14:30 | 55.95173 | -3.36714 | 421 ft | 156 kts | 59° |
| 2026-04-26 14:30 | 55.95750 | -3.34965 | 1042 ft | 178 kts | 58° |
| 2026-04-26 14:31 | 55.96644 | -3.33188 | 1496 ft | 208 kts | 41° |
| 2026-04-26 14:31 | 55.97821 | -3.31399 | 2034 ft | 235 kts | 40° |
| 2026-04-26 14:31 | 55.99116 | -3.29332 | 2706 ft | 262 kts | 42° |
| 2026-04-26 14:31 | 56.00482 | -3.27097 | 3856 ft | 267 kts | 41° |
| 2026-04-26 14:32 | 56.01874 | -3.24844 | 5030 ft | 272 kts | 41° |
| 2026-04-26 14:32 | 56.03276 | -3.22587 | 6112 ft | 277 kts | 41° |
| 2026-04-26 14:32 | 56.04665 | -3.20156 | 7139 ft | 284 kts | 51° |
| 2026-04-26 14:32 | 56.05408 | -3.16860 | 8165 ft | 290 kts | 82° |
| 2026-04-26 14:33 | 56.05348 | -3.13258 | 9319 ft | 292 kts | 99° |
| 2026-04-26 14:33 | 56.04684 | -3.09812 | 10171 ft | 295 kts | 127° |
| 2026-04-26 14:33 | 56.03282 | -3.07130 | 10837 ft | 303 kts | 144° |
| 2026-04-26 14:33 | 56.01536 | -3.04753 | 11149 ft | 327 kts | 148° |
| 2026-04-26 14:34 | 55.99651 | -3.02282 | 11389 ft | 351 kts | 146° |
| 2026-04-26 14:34 | 55.97663 | -2.99693 | 12094 ft | 353 kts | 153° |
| 2026-04-26 14:34 | 55.95337 | -2.98528 | 12808 ft | 348 kts | 181° |
| 2026-04-26 14:34 | 55.92998 | -2.99416 | 13583 ft | 345 kts | 206° |
| 2026-04-26 14:35 | 55.90929 | -3.01605 | 14332 ft | 346 kts | 216° |
| 2026-04-26 14:35 | 55.88929 | -3.04036 | 15031 ft | 350 kts | 216° |
| 2026-04-26 14:35 | 55.86826 | -3.06270 | 15722 ft | 355 kts | 210° |
| 2026-04-26 14:35 | 55.84546 | -3.08049 | 16441 ft | 360 kts | 204° |
| 2026-04-26 14:36 | 55.82196 | -3.09663 | 17185 ft | 364 kts | 204° |
| 2026-04-26 14:36 | 55.79874 | -3.11479 | 17938 ft | 366 kts | 207° |
| 2026-04-26 14:36 | 55.77567 | -3.13449 | 18686 ft | 370 kts | 208° |
| 2026-04-26 14:36 | 55.75207 | -3.15360 | 19377 ft | 374 kts | 206° |
| 2026-04-26 14:37 | 55.72826 | -3.17189 | 20049 ft | 379 kts | 206° |
| 2026-04-26 14:37 | 55.70403 | -3.19091 | 20742 ft | 383 kts | 207° |
| 2026-04-26 14:37 | 55.67957 | -3.21061 | 21467 ft | 387 kts | 207° |
| 2026-04-26 14:37 | 55.65491 | -3.23028 | 22160 ft | 391 kts | 207° |
| 2026-04-26 14:38 | 55.62980 | -3.24972 | 22842 ft | 395 kts | 205° |
| 2026-04-26 14:38 | 55.60330 | -3.26316 | 23468 ft | 404 kts | 194° |
| 2026-04-26 14:38 | 55.57508 | -3.26803 | 24100 ft | 411 kts | 184° |
| 2026-04-26 14:38 | 55.55595 | -3.26611 | 24492 ft | 416 kts | 177° |
| 2026-04-26 14:39 | 55.51791 | -3.24935 | 25286 ft | 427 kts | 163° |
| 2026-04-26 14:39 | 55.49137 | -3.22572 | 25852 ft | 437 kts | 152° |
| 2026-04-26 14:39 | 55.46711 | -3.19235 | 26392 ft | 447 kts | 140° |
| 2026-04-26 14:39 | 55.44665 | -3.15024 | 26955 ft | 457 kts | 128° |
| 2026-04-26 14:40 | 55.43100 | -3.10107 | 27499 ft | 464 kts | 119° |
| 2026-04-26 14:40 | 55.41701 | -3.04936 | 28029 ft | 469 kts | 118° |
| 2026-04-26 14:40 | 55.40310 | -2.99786 | 28573 ft | 473 kts | 119° |
| 2026-04-26 14:40 | 55.38874 | -2.94532 | 29108 ft | 477 kts | 119° |
| 2026-04-26 14:41 | 55.37423 | -2.89252 | 29636 ft | 482 kts | 120° |
| 2026-04-26 14:41 | 55.35960 | -2.83918 | 30165 ft | 486 kts | 120° |
| 2026-04-26 14:41 | 55.34484 | -2.78534 | 30628 ft | 490 kts | 120° |
| 2026-04-26 14:41 | 55.32992 | -2.73122 | 31010 ft | 495 kts | 120° |
| 2026-04-26 14:42 | 55.31493 | -2.67709 | 31421 ft | 499 kts | 120° |
| 2026-04-26 14:42 | 55.29979 | -2.62232 | 32061 ft | 498 kts | 120° |
| 2026-04-26 14:42 | 55.28460 | -2.56749 | 32607 ft | 500 kts | 120° |
| 2026-04-26 14:42 | 55.26926 | -2.51241 | 33162 ft | 502 kts | 120° |
| 2026-04-26 14:43 | 55.25389 | -2.45740 | 33753 ft | 503 kts | 120° |
| 2026-04-26 14:43 | 55.23843 | -2.40204 | 34295 ft | 504 kts | 121° |
| 2026-04-26 14:43 | 55.22315 | -2.34746 | 34865 ft | 502 kts | 120° |
| 2026-04-26 14:43 | 55.20776 | -2.29267 | 35530 ft | 499 kts | 120° |
| 2026-04-26 14:44 | 55.19242 | -2.23822 | 36219 ft | 495 kts | 120° |
| 2026-04-26 14:44 | 55.17719 | -2.18427 | 36888 ft | 492 kts | 120° |
| 2026-04-26 14:44 | 55.16227 | -2.13136 | 37383 ft | 491 kts | 119° |
| 2026-04-26 14:44 | 55.14709 | -2.07787 | 37999 ft | 489 kts | 119° |
| 2026-04-26 14:45 | 55.13198 | -2.02479 | 38719 ft | 485 kts | 119° |
| 2026-04-26 14:45 | 55.12201 | -1.98977 | 39137 ft | 483 kts | 119° |
| 2026-04-26 14:45 | 55.10194 | -1.91946 | 39811 ft | 481 kts | 119° |
| 2026-04-26 14:45 | 55.08697 | -1.86716 | 40271 ft | 481 kts | 119° |
| 2026-04-26 14:46 | 55.07216 | -1.81550 | 40741 ft | 481 kts | 118° |
| 2026-04-26 14:46 | 55.05713 | -1.76342 | 41215 ft | 480 kts | 119° |
| 2026-04-26 14:46 | 55.03944 | -1.71411 | 41654 ft | 478 kts | 129° |
| 2026-04-26 14:46 | 55.01753 | -1.67069 | 42136 ft | 474 kts | 139° |
| 2026-04-26 14:47 | 54.99218 | -1.63422 | 42590 ft | 471 kts | 147° |
| 2026-04-26 14:47 | 54.96491 | -1.60295 | 43023 ft | 470 kts | 150° |
| 2026-04-26 14:47 | 54.93697 | -1.57338 | 43456 ft | 470 kts | 151° |
| 2026-04-26 14:47 | 54.90958 | -1.54190 | 43872 ft | 472 kts | 146° |
| 2026-04-26 14:48 | 54.88338 | -1.50746 | 44326 ft | 473 kts | 144° |
| 2026-04-26 14:48 | 54.85706 | -1.47333 | 44760 ft | 472 kts | 146° |
| 2026-04-26 14:48 | 54.83025 | -1.44156 | 45167 ft | 472 kts | 148° |
| 2026-04-26 14:48 | 54.80290 | -1.40955 | 45272 ft | 479 kts | 147° |
| 2026-04-26 14:49 | 54.77516 | -1.37527 | 45280 ft | 488 kts | 146° |
| 2026-04-26 14:49 | 54.71898 | -1.30603 | 45293 ft | 503 kts | 147° |
| 2026-04-26 14:50 | 54.66102 | -1.23645 | 45299 ft | 517 kts | 146° |
| 2026-04-26 14:50 | 54.60206 | -1.16464 | 45298 ft | 519 kts | 147° |
| 2026-04-26 14:51 | 54.54269 | -1.09356 | 45292 ft | 520 kts | 147° |
| 2026-04-26 14:51 | 54.48346 | -1.02223 | 45274 ft | 519 kts | 147° |
| 2026-04-26 14:52 | 54.42421 | -0.95158 | 45285 ft | 519 kts | 147° |
| 2026-04-26 14:52 | 54.36489 | -0.88083 | 45282 ft | 519 kts | 147° |
| 2026-04-26 14:53 | 54.30568 | -0.81061 | 45291 ft | 521 kts | 147° |
| 2026-04-26 14:53 | 54.24603 | -0.74004 | 45296 ft | 521 kts | 147° |
| 2026-04-26 14:54 | 54.18631 | -0.66969 | 45289 ft | 520 kts | 147° |
| 2026-04-26 14:54 | 54.12698 | -0.60001 | 45295 ft | 520 kts | 147° |
| 2026-04-26 14:55 | 54.06724 | -0.53013 | 45293 ft | 520 kts | 147° |
| 2026-04-26 14:55 | 54.01746 | -0.47208 | 45293 ft | 520 kts | 147° |
| 2026-04-26 14:56 | 53.94790 | -0.39125 | 45309 ft | 521 kts | 147° |
| 2026-04-26 14:56 | 53.89808 | -0.33354 | 45312 ft | 521 kts | 147° |
| 2026-04-26 14:57 | 53.83814 | -0.26436 | 45314 ft | 521 kts | 147° |
| 2026-04-26 14:57 | 53.77820 | -0.19542 | 45316 ft | 521 kts | 147° |
| 2026-04-26 14:58 | 53.71819 | -0.12664 | 45294 ft | 521 kts | 147° |
| 2026-04-26 14:58 | 53.66093 | -0.05215 | 45295 ft | 523 kts | 141° |
| 2026-04-26 14:59 | 53.60546 | 0.02736 | 45316 ft | 521 kts | 142° |
| 2026-04-26 14:59 | 53.54960 | 0.10450 | 45315 ft | 521 kts | 141° |
| 2026-04-26 15:00 | 53.49399 | 0.18284 | 45315 ft | 521 kts | 141° |
| 2026-04-26 15:00 | 53.43797 | 0.26030 | 45321 ft | 522 kts | 142° |
| 2026-04-26 15:01 | 53.38231 | 0.33769 | 45328 ft | 522 kts | 141° |
| 2026-04-26 15:01 | 53.32616 | 0.41508 | 45325 ft | 521 kts | 142° |
| 2026-04-26 15:02 | 53.27036 | 0.49194 | 45325 ft | 521 kts | 142° |
| 2026-04-26 15:02 | 53.21429 | 0.56880 | 45313 ft | 519 kts | 142° |
| 2026-04-26 15:03 | 53.15824 | 0.64540 | 45316 ft | 520 kts | 142° |
| 2026-04-26 15:03 | 53.10243 | 0.72139 | 45315 ft | 520 kts | 142° |
| 2026-04-26 15:04 | 53.04624 | 0.79766 | 45305 ft | 520 kts | 142° |
| 2026-04-26 15:04 | 52.99040 | 0.87316 | 45310 ft | 520 kts | 142° |
| 2026-04-26 15:05 | 52.93411 | 0.94902 | 45308 ft | 520 kts | 142° |
| 2026-04-26 15:05 | 52.87778 | 1.02468 | 45317 ft | 520 kts | 142° |
| 2026-04-26 15:06 | 52.82187 | 1.09951 | 45136 ft | 513 kts | 142° |
| 2026-04-26 15:06 | 52.79431 | 1.13633 | 44396 ft | 503 kts | 142° |
| 2026-04-26 15:06 | 52.76741 | 1.17218 | 43749 ft | 491 kts | 143° |
| 2026-04-26 15:06 | 52.74110 | 1.20713 | 43132 ft | 479 kts | 143° |
| 2026-04-26 15:07 | 52.69006 | 1.27513 | 41885 ft | 467 kts | 142° |
| 2026-04-26 15:07 | 52.66691 | 1.31290 | 41287 ft | 471 kts | 132° |
| 2026-04-26 15:07 | 52.64668 | 1.35584 | 40670 ft | 476 kts | 127° |
| 2026-04-26 15:08 | 52.62775 | 1.40021 | 40045 ft | 479 kts | 126° |
| 2026-04-26 15:08 | 52.60794 | 1.44440 | 39418 ft | 480 kts | 129° |
| 2026-04-26 15:08 | 52.58713 | 1.48745 | 38736 ft | 480 kts | 130° |
| 2026-04-26 15:08 | 52.56650 | 1.53084 | 38090 ft | 481 kts | 129° |
| 2026-04-26 15:09 | 52.54639 | 1.57518 | 37454 ft | 484 kts | 128° |
| 2026-04-26 15:09 | 52.52620 | 1.61949 | 36819 ft | 485 kts | 129° |
| 2026-04-26 15:09 | 52.50577 | 1.66288 | 36182 ft | 486 kts | 129° |
| 2026-04-26 15:09 | 52.48495 | 1.70681 | 35547 ft | 486 kts | 129° |
| 2026-04-26 15:10 | 52.46440 | 1.75096 | 34906 ft | 487 kts | 129° |
| 2026-04-26 15:10 | 52.45085 | 1.78026 | 34481 ft | 488 kts | 129° |
| 2026-04-26 15:10 | 52.42335 | 1.83899 | 33643 ft | 490 kts | 129° |
| 2026-04-26 15:10 | 52.40232 | 1.88342 | 32993 ft | 492 kts | 129° |
| 2026-04-26 15:11 | 52.38136 | 1.92793 | 32341 ft | 494 kts | 129° |
| 2026-04-26 15:11 | 52.36059 | 1.97217 | 31691 ft | 495 kts | 129° |
| 2026-04-26 15:11 | 52.33941 | 2.01705 | 31034 ft | 500 kts | 129° |
| 2026-04-26 15:11 | 52.31799 | 2.06219 | 30363 ft | 498 kts | 129° |
| 2026-04-26 15:12 | 52.29689 | 2.10672 | 29672 ft | 491 kts | 129° |
| 2026-04-26 15:12 | 52.27603 | 2.15074 | 29033 ft | 485 kts | 129° |
| 2026-04-26 15:12 | 52.25546 | 2.19400 | 28386 ft | 479 kts | 129° |
| 2026-04-26 15:12 | 52.23515 | 2.23656 | 27769 ft | 473 kts | 129° |
| 2026-04-26 15:13 | 52.21526 | 2.27821 | 27157 ft | 467 kts | 129° |
| 2026-04-26 15:13 | 52.19539 | 2.31979 | 26547 ft | 462 kts | 129° |
| 2026-04-26 15:13 | 52.17570 | 2.36095 | 25941 ft | 457 kts | 129° |
| 2026-04-26 15:13 | 52.15620 | 2.40159 | 25344 ft | 452 kts | 129° |
| 2026-04-26 15:14 | 52.13690 | 2.44174 | 24751 ft | 447 kts | 129° |
| 2026-04-26 15:14 | 52.11803 | 2.48182 | 24161 ft | 444 kts | 126° |
| 2026-04-26 15:14 | 52.10368 | 2.52612 | 23536 ft | 439 kts | 115° |
| 2026-04-26 15:14 | 52.09149 | 2.57103 | 22969 ft | 436 kts | 114° |
| 2026-04-26 15:15 | 52.07921 | 2.61606 | 22393 ft | 433 kts | 115° |
| 2026-04-26 15:15 | 52.06668 | 2.66043 | 21828 ft | 428 kts | 115° |
| 2026-04-26 15:15 | 52.05786 | 2.70643 | 21208 ft | 425 kts | 102° |
| 2026-04-26 15:15 | 52.05297 | 2.75363 | 20671 ft | 421 kts | 97° |
| 2026-04-26 15:16 | 52.04912 | 2.80065 | 20157 ft | 418 kts | 97° |
| 2026-04-26 15:16 | 52.04396 | 2.84649 | 19656 ft | 415 kts | 102° |
| 2026-04-26 15:16 | 52.03726 | 2.89190 | 19165 ft | 412 kts | 103° |
| 2026-04-26 15:16 | 52.03112 | 2.93714 | 18685 ft | 409 kts | 101° |
| 2026-04-26 15:17 | 52.02596 | 2.98249 | 18149 ft | 406 kts | 99° |
| 2026-04-26 15:17 | 52.02244 | 3.01287 | 17785 ft | 404 kts | 100° |
| 2026-04-26 15:17 | 52.01481 | 3.07149 | 17090 ft | 399 kts | 102° |
| 2026-04-26 15:17 | 52.00904 | 3.11527 | 16577 ft | 395 kts | 101° |
| 2026-04-26 15:18 | 52.00362 | 3.15871 | 16082 ft | 391 kts | 101° |
| 2026-04-26 15:18 | 51.99824 | 3.20180 | 15596 ft | 388 kts | 101° |
| 2026-04-26 15:18 | 51.99275 | 3.24448 | 15130 ft | 385 kts | 102° |
| 2026-04-26 15:18 | 51.98724 | 3.28678 | 14671 ft | 382 kts | 102° |
| 2026-04-26 15:19 | 51.98183 | 3.32888 | 14220 ft | 378 kts | 102° |
| 2026-04-26 15:19 | 51.97648 | 3.37054 | 13726 ft | 376 kts | 102° |
| 2026-04-26 15:19 | 51.97110 | 3.41202 | 13231 ft | 375 kts | 102° |
| 2026-04-26 15:19 | 51.96573 | 3.45321 | 12747 ft | 373 kts | 102° |
| 2026-04-26 15:20 | 51.96042 | 3.49396 | 12277 ft | 368 kts | 102° |
| 2026-04-26 15:20 | 51.95513 | 3.53450 | 11816 ft | 367 kts | 102° |
| 2026-04-26 15:20 | 51.94986 | 3.57473 | 11362 ft | 353 kts | 102° |
| 2026-04-26 15:20 | 51.94492 | 3.61226 | 10915 ft | 330 kts | 102° |
| 2026-04-26 15:21 | 51.94028 | 3.64741 | 10454 ft | 311 kts | 102° |
| 2026-04-26 15:21 | 51.93582 | 3.68118 | 9977 ft | 304 kts | 102° |
| 2026-04-26 15:21 | 51.93144 | 3.71432 | 9483 ft | 297 kts | 102° |
| 2026-04-26 15:21 | 51.92717 | 3.74645 | 9013 ft | 293 kts | 102° |
| 2026-04-26 15:22 | 51.92288 | 3.77870 | 8556 ft | 292 kts | 102° |
| 2026-04-26 15:22 | 51.91868 | 3.81022 | 8113 ft | 280 kts | 101° |
| 2026-04-26 15:22 | 51.91487 | 3.83862 | 7463 ft | 240 kts | 101° |
| 2026-04-26 15:22 | 51.91152 | 3.86364 | 6835 ft | 217 kts | 101° |
| 2026-04-26 15:23 | 51.90825 | 3.88813 | 6313 ft | 226 kts | 101° |
| 2026-04-26 15:23 | 51.90489 | 3.91326 | 5816 ft | 230 kts | 101° |
| 2026-04-26 15:23 | 51.90146 | 3.93868 | 5354 ft | 232 kts | 101° |
| 2026-04-26 15:23 | 51.89804 | 3.96401 | 4917 ft | 230 kts | 101° |
| 2026-04-26 15:24 | 51.89472 | 3.98855 | 4563 ft | 215 kts | 101° |
| 2026-04-26 15:24 | 51.89161 | 4.01155 | 4198 ft | 204 kts | 101° |
| 2026-04-26 15:24 | 51.88867 | 4.03325 | 3839 ft | 196 kts | 101° |
| 2026-04-26 15:24 | 51.88579 | 4.05445 | 3479 ft | 189 kts | 101° |
| 2026-04-26 15:25 | 51.88300 | 4.07503 | 3113 ft | 184 kts | 101° |
| 2026-04-26 15:25 | 51.88120 | 4.08831 | 2872 ft | 181 kts | 100° |
| 2026-04-26 15:25 | 51.87763 | 4.11454 | 2411 ft | 176 kts | 100° |
| 2026-04-26 15:25 | 51.87500 | 4.13385 | 2054 ft | 174 kts | 100° |
| 2026-04-26 15:26 | 51.87247 | 4.15230 | 1985 ft | 160 kts | 99° |
| 2026-04-26 15:26 | 51.87009 | 4.16967 | 1990 ft | 157 kts | 100° |
| 2026-04-26 15:26 | 51.86773 | 4.18701 | 1975 ft | 158 kts | 99° |
| 2026-04-26 15:26 | 51.86616 | 4.20431 | 1969 ft | 158 kts | 86° |
| 2026-04-26 15:27 | 51.86909 | 4.22120 | 1987 ft | 155 kts | 62° |
| 2026-04-26 15:27 | 51.87503 | 4.23584 | 1995 ft | 156 kts | 55° |
| 2026-04-26 15:27 | 51.88093 | 4.25045 | 2002 ft | 154 kts | 57° |
| 2026-04-26 15:27 | 51.88681 | 4.26512 | 2000 ft | 154 kts | 57° |
| 2026-04-26 15:28 | 51.89232 | 4.27890 | 1985 ft | 138 kts | 56° |
| 2026-04-26 15:28 | 51.89725 | 4.29123 | 1965 ft | 126 kts | 56° |
| 2026-04-26 15:28 | 51.90187 | 4.30277 | 1899 ft | 123 kts | 56° |
| 2026-04-26 15:28 | 51.90659 | 4.31457 | 1722 ft | 125 kts | 56° |
| 2026-04-26 15:29 | 51.91120 | 4.32612 | 1537 ft | 118 kts | 57° |
| 2026-04-26 15:29 | 51.91554 | 4.33698 | 1403 ft | 115 kts | 56° |
| 2026-04-26 15:29 | 51.92398 | 4.35809 | 1104 ft | 111 kts | 56° |
| 2026-04-26 15:30 | 51.93222 | 4.37883 | 793 ft | 107 kts | 55° |
| 2026-04-26 15:30 | 51.93644 | 4.38886 | 610 ft | 106 kts | 56° |
| 2026-04-26 15:30 | 51.94033 | 4.39843 | 435 ft | 100 kts | 58° |
| 2026-04-26 15:31 | 51.94409 | 4.40827 | 350 ft | 103 kts | 59° |
| 2026-04-26 15:31 | 51.95166 | 4.42715 | 42 ft | 97 kts | 59° |
| 2026-04-26 15:31 | 51.95494 | 4.43548 | -4 ft | 61 kts | 56° |
| 2026-04-26 15:32 | 51.95711 | 4.44104 | -2 ft | 30 kts | 58° |
| 2026-04-26 15:32 | 51.95869 | 4.44498 | -5 ft | 32 kts | 57° |
| 2026-04-26 15:32 | 51.95878 | 4.44705 | -3 ft | 17 kts | 143° |
| 2026-04-26 15:33 | 51.95796 | 4.44759 | -3 ft | 3 kts | 194° |
| 2026-04-26 15:33 | 51.95795 | 4.44759 | -3 ft | 0 kts | 197° |
| 2026-04-26 15:35 | 51.95789 | 4.44752 | -3 ft | 4 kts | 217° |
| 2026-04-26 15:35 | 51.95756 | 4.44683 | -3 ft | 11 kts | 238° |
| 2026-04-26 15:35 | 51.95700 | 4.44543 | -3 ft | 19 kts | 236° |
| 2026-04-26 15:35 | 51.95612 | 4.44326 | -3 ft | 25 kts | 236° |
| 2026-04-26 15:36 | 51.95518 | 4.44087 | -3 ft | 25 kts | 234° |
| 2026-04-26 15:36 | 51.95423 | 4.43857 | -3 ft | 24 kts | 237° |
| 2026-04-26 15:36 | 51.95334 | 4.43624 | -3 ft | 24 kts | 236° |
| 2026-04-26 15:36 | 51.95253 | 4.43506 | -3 ft | 13 kts | 172° |
| 2026-04-26 15:37 | 51.95182 | 4.43573 | -3 ft | 12 kts | 148° |
| 2026-04-26 15:37 | 51.95112 | 4.43646 | -3 ft | 12 kts | 148° |
| 2026-04-26 15:37 | 51.95049 | 4.43703 | -3 ft | 6 kts | 175° |
| 2026-04-26 15:37 | 51.95026 | 4.43677 | -3 ft | 5 kts | 237° |
| 2026-04-26 15:38 | 51.95006 | 4.43627 | -3 ft | 0 kts | 236° |
| 2026-04-26 15:38 | 51.95003 | 4.43606 | -3 ft | 3 kts | 272° |
| 2026-04-26 15:38 | 51.95012 | 4.43591 | -3 ft | 3 kts | 326° |
| 2026-04-26 15:38 | 51.95039 | 4.43562 | -3 ft | 3 kts | 325° |
| 2026-04-26 15:39 | 51.95040 | 4.43562 | -3 ft | 0 kts | 324° |